Airport View

Enter AWOS ICAO identifier for current METAR.

ex. KFNL

10 Jul 2020 02:20

Frequency: 120.675

Phone: 615-384-8206

Other Area AWOS: KJWN - K1M5 - KCKV - KM33

TAF KCKV 092320Z 1000/1024 20003KT P6SM FEW050 FM101000 22002KT 5SM BR FEW030 FM101300 30009KT P6SM VCSH SCT050